Corrente, Brazil
Current Conditions -  °F | °C
As of 5:00 PM on Tuesday 21 Oct 2014 (Local Time) from SBPJ Reporting Station
Few Clouds Few Clouds  
Wind Chill: 86°   Ceiling: Unl
Heat Index: 89°   Visibility: 6mi
Dew Point: 68°   Wind: 3mph
Humidity: 55%   Direction: 360°N
Pressure: 29.77"   Gusts: NA
Location:  10.44°S, 45.16°W
Report Text: SBPJ 212000Z 36003KT 9999 FEW030 FEW035TCU 30/20 Q1008 RETS
Loading
Personal Weather Stations






























Interactive Weather Map
Tropical Storm Tracking
New forecast layout! Learn more

10-Day Weather Forecast

Advertisements
Track Severe Weather on mobile